This is the latest recevied weather packets stored in our database for station/object SP8AQK-13. If no packets are shown the sender has not sent any weather packets the latest 10 day(s).
| Time | Temp. | Humidity | Pressure | Rain* | Wind** | Luminosity | Snow |
|---|---|---|---|---|---|---|---|
| 1777714906 | 19.44° C | 41% | 1026.9 hPa | - | - | - | - |
| 1777713706 | 18.33° C | 42% | 1027.3 hPa | - | - | - | - |
| 1777712504 | 17.78° C | 43% | 1027.4 hPa | - | - | - | - |
| 1777711303 | 17.78° C | 43% | 1027.7 hPa | - | - | - | - |
| 1777710102 | 17.78° C | 44% | 1027.7 hPa | - | - | - | - |
| 1777708902 | 16.67° C | 45% | 1028 hPa | - | - | - | - |
| 1777707701 | 16.11° C | 49% | 1028.1 hPa | - | - | - | - |
| 1777706650 | 16.11° C | 51% | 1028.2 hPa | - | - | - | - |
| 1777705449 | 15.56° C | 53% | 1028.2 hPa | - | - | - | - |
| 1777704249 | 14.44° C | 56% | 1028.1 hPa | - | - | - | - |
| 1777703048 | 13.89° C | 62% | 1028.2 hPa | - | - | - | - |
| 1777701847 | 12.78° C | 67% | 1028.3 hPa | - | - | - | - |
| 1777700646 | 11.67° C | 74% | 1028.4 hPa | - | - | - | - |
| 1777699446 | 10° C | 86% | 1028.4 hPa | - | - | - | - |
| 1777698245 | 7.78° C | 98% | 1028.5 hPa | - | - | - | - |
| 1777697044 | 5° C | 100% | 1028.7 hPa | - | - | - | - |
| 1777695844 | 3.33° C | 100% | 1028.8 hPa | - | - | - | - |
| 1777694643 | 2.78° C | 100% | 1028.9 hPa | - | - | - | - |
| 1777693442 | 2.22° C | 100% | 1028.8 hPa | - | - | - | - |
| 1777692241 | 1.67° C | 100% | 1028.6 hPa | - | - | - | - |
| 1777691041 | 2.22° C | 100% | 1028.7 hPa | - | - | - | - |
| 1777689840 | 2.22° C | 100% | 1028.6 hPa | - | - | - | - |
| 1777688639 | 2.22° C | 100% | 1028.4 hPa | - | - | - | - |
| 1777687439 | 2.22° C | 100% | 1028.5 hPa | - | - | - | - |
| 1777686238 | 2.78° C | 100% | 1028.5 hPa | - | - | - | - |
* Rain since midnight (hover to see other rain measurements)
** Current wind speed in m/s (hover to see current wind gust speed)